Time;durP1;ratioP1;P1;durP2;ratioP2;P2;SDS_P1;SDS_P2;PMS_P1;PMS_P2;Temp;Humidity;BMP_temperature;BMP_pressure;BME280_temperature;BME280_humidity;BME280_pressure;Samples;Min_cycle;Max_cycle;Signal;HPM_P1;HPM_P2
2023/10/20 00:02:22;;;;;;;17.48;12.80;;;;;;;10.84;100.00;102193.91;5017343;28;20060;-73
2023/10/20 00:04:48;;;;;;;18.02;12.23;;;;;;;10.78;100.00;102182.00;5018629;28;20037;-73
2023/10/20 00:07:13;;;;;;;17.40;11.95;;;;;;;10.71;100.00;102090.38;5009480;28;20033;-73
2023/10/20 00:09:39;;;;;;;17.70;12.10;;;;;;;11.17;100.00;102057.47;5012846;28;20064;-72
2023/10/20 00:12:05;;;;;;;17.55;11.48;;;;;;;11.27;100.00;101931.03;5015897;28;20069;-73
2023/10/20 00:14:31;;;;;;;14.43;11.15;;;;;;;11.08;100.00;101869.09;5009194;28;20117;-72
2023/10/20 00:16:57;;;;;;;16.05;11.35;;;;;;;11.21;100.00;101804.59;5021314;28;20100;-72
2023/10/20 00:19:22;;;;;;;18.17;11.95;;;;;;;10.91;100.00;101695.22;5019817;28;20037;-71
2023/10/20 00:21:48;;;;;;;16.02;12.18;;;;;;;10.81;100.00;101654.50;5018615;28;20029;-73
2023/10/20 00:24:13;;;;;;;16.67;12.13;;;;;;;10.52;100.00;101666.44;5008009;28;20037;-72
2023/10/20 00:26:39;;;;;;;16.75;12.27;;;;;;;11.20;100.00;101762.19;5021055;28;20042;-72
2023/10/20 00:29:05;;;;;;;16.10;11.38;;;;;;;10.94;100.00;101707.06;5017371;28;20037;-70
2023/10/20 00:31:31;;;;;;;16.98;11.18;;;;;;;11.18;100.00;101748.59;5012802;28;20034;-71
2023/10/20 00:33:57;;;;;;;15.85;10.93;;;;;;;11.41;100.00;101674.69;5019009;28;20431;-72
2023/10/20 00:36:22;;;;;;;16.40;11.73;;;;;;;11.09;100.00;101542.44;5011432;28;20073;-70
2023/10/20 00:38:47;;;;;;;18.20;11.70;;;;;;;11.02;100.00;101471.22;5017768;28;20067;-71
2023/10/20 00:41:13;;;;;;;15.80;10.65;;;;;;;11.08;100.00;101456.78;5014552;28;20092;-71
2023/10/20 00:43:39;;;;;;;16.33;11.07;;;;;;;10.96;100.00;101461.94;5021874;28;20136;-71
2023/10/20 00:46:06;;;;;;;13.70;10.77;;;;;;;10.87;100.00;101440.78;5004909;28;20030;-71
2023/10/20 00:48:34;;;;;;;16.02;11.45;;;;;;;10.74;100.00;101388.28;5015027;28;20618;-70
2023/10/20 00:51:05;;;;;;;14.50;11.80;;;;;;;11.19;100.00;101442.25;5023208;28;20035;-71
2023/10/20 00:53:33;;;;;;;15.88;11.68;;;;;;;11.21;100.00;101478.72;5022712;28;20129;-72
2023/10/20 00:55:58;;;;;;;16.15;12.85;;;;;;;10.48;100.00;101390.94;5010675;28;20046;-72
2023/10/20 00:58:27;;;;;;;22.00;14.20;;;;;;;10.88;100.00;101445.00;5020510;28;20036;-71
2023/10/20 01:00:53;;;;;;;22.45;15.95;;;;;;;10.89;100.00;101551.88;5017853;28;20033;-71
2023/10/20 01:03:19;;;;;;;21.98;15.48;;;;;;;10.85;100.00;101727.44;5020909;28;20041;-72
2023/10/20 01:05:46;;;;;;;21.33;17.25;;;;;;;11.01;100.00;101802.94;5020040;28;20563;-72
2023/10/20 01:08:13;;;;;;;22.48;17.48;;;;;;;10.96;100.00;101856.38;5018848;28;20057;-72
2023/10/20 01:10:38;;;;;;;22.30;17.20;;;;;;;10.62;100.00;101833.44;5020190;28;20057;-72
2023/10/20 01:13:04;;;;;;;23.25;18.50;;;;;;;10.84;100.00;101924.19;5017503;28;20136;-70
2023/10/20 01:15:30;;;;;;;21.45;16.38;;;;;;;10.97;100.00;101931.03;5019593;28;20053;-72
2023/10/20 01:17:55;;;;;;;19.48;16.08;;;;;;;11.44;100.00;102004.91;5021269;28;20574;-73
2023/10/20 01:20:21;;;;;;;22.10;16.58;;;;;;;10.85;100.00;101938.63;5019490;28;20091;-73
2023/10/20 01:22:48;;;;;;;20.42;16.55;;;;;;;10.97;100.00;101985.28;5011101;28;20021;-74
2023/10/20 01:25:14;;;;;;;21.80;17.27;;;;;;;10.98;100.00;101956.47;5023730;28;20029;-73
2023/10/20 01:27:39;;;;;;;22.13;15.40;;;;;;;11.04;100.00;101988.72;5017657;28;20143;-72
2023/10/20 01:30:06;;;;;;;17.75;14.50;;;;;;;10.76;100.00;101977.59;5016492;28;20065;-70
2023/10/20 01:32:31;;;;;;;17.25;14.13;;;;;;;10.82;100.00;102000.53;5016289;28;20029;-71
2023/10/20 01:34:57;;;;;;;19.02;14.48;;;;;;;10.96;100.00;102001.44;5018890;28;20118;-71
2023/10/20 01:37:22;;;;;;;18.75;13.57;;;;;;;10.79;100.00;102002.22;5013902;28;20034;-70
2023/10/20 01:39:48;;;;;;;15.25;12.77;;;;;;;10.27;100.00;101947.72;5009961;28;20026;-72
2023/10/20 01:42:14;;;;;;;16.42;12.73;;;;;;;11.01;100.00;102021.81;5008860;28;20029;-72
2023/10/20 01:44:40;;;;;;;19.73;14.05;;;;;;;11.14;100.00;102006.56;5018414;28;20042;-69
2023/10/20 01:47:05;;;;;;;16.45;13.05;;;;;;;10.96;100.00;101982.75;5008490;28;20546;-71
2023/10/20 01:49:31;;;;;;;18.27;12.80;;;;;;;10.88;100.00;101941.16;5005183;28;20030;-72
2023/10/20 01:51:56;;;;;;;15.73;13.27;;;;;;;10.47;100.00;101920.72;5020358;28;20492;-71
2023/10/20 01:54:23;;;;;;;17.17;13.38;;;;;;;10.23;100.00;101860.44;5020157;28;20022;-71
2023/10/20 01:56:48;;;;;;;17.15;14.43;;;;;;;10.22;100.00;101860.44;5017759;28;20030;-72
2023/10/20 01:59:15;;;;;;;18.77;14.95;;;;;;;10.14;100.00;101888.34;5015372;28;20026;-72
2023/10/20 02:01:40;;;;;;;17.23;14.75;;;;;;;10.38;100.00;101928.28;5002933;28;20033;-72
2023/10/20 02:04:06;;;;;;;16.55;14.40;;;;;;;10.71;100.00;101998.78;5019821;28;20033;-72
2023/10/20 02:06:31;;;;;;;20.55;14.85;;;;;;;10.02;100.00;101950.94;5020514;28;20030;-72
2023/10/20 02:08:58;;;;;;;18.40;13.75;;;;;;;10.54;100.00;102206.44;5020479;28;20112;-70
2023/10/20 02:11:23;;;;;;;17.08;14.23;;;;;;;10.12;100.00;102200.09;5012875;28;20026;-71
2023/10/20 02:13:49;;;;;;;16.65;13.43;;;;;;;10.19;100.00;102278.13;5019750;28;20073;-72
2023/10/20 02:16:15;;;;;;;16.63;13.88;;;;;;;10.22;100.00;102264.63;5016183;28;20022;-72
2023/10/20 02:18:41;;;;;;;16.30;13.35;;;;;;;10.37;100.00;102319.00;5009500;28;20400;-71
2023/10/20 02:21:08;;;;;;;16.40;14.05;;;;;;;9.77;100.00;102252.19;5019293;28;20049;-71
2023/10/20 02:23:35;;;;;;;15.73;13.45;;;;;;;10.18;100.00;102299.28;5014991;28;20108;-72
2023/10/20 02:26:02;;;;;;;20.10;13.65;;;;;;;9.85;100.00;102262.44;5021990;28;20484;-70
2023/10/20 02:28:28;;;;;;;16.15;13.23;;;;;;;10.41;100.00;102313.13;5015909;28;20523;-71
2023/10/20 02:30:57;;;;;;;14.98;13.38;;;;;;;10.01;100.00;102282.13;5015389;28;20029;-71
2023/10/20 02:33:23;;;;;;;17.63;14.23;;;;;;;10.16;100.00;102333.19;5016154;28;20488;-71
2023/10/20 02:35:48;;;;;;;17.00;13.93;;;;;;;10.34;100.00;102353.69;5017388;28;20041;-71
2023/10/20 02:38:14;;;;;;;16.67;13.77;;;;;;;9.98;100.00;102298.19;5014836;28;20036;-71
2023/10/20 02:40:48;;;;;;;17.60;14.38;;;;;;;10.42;100.00;102377.53;5021478;28;20033;-72
2023/10/20 02:43:13;;;;;;;18.42;14.15;;;;;;;10.18;100.00;102328.97;5020326;28;20030;-73
2023/10/20 02:45:49;;;;;;;15.57;13.98;;;;;;;10.39;100.00;102312.25;5017641;28;20033;-73
2023/10/20 02:48:15;;;;;;;18.10;14.23;;;;;;;10.60;100.00;102339.59;5018498;28;20056;-72
2023/10/20 02:50:40;;;;;;;18.70;14.57;;;;;;;10.32;100.00;102309.59;5014201;28;20476;-72
2023/10/20 02:53:07;;;;;;;19.35;15.20;;;;;;;10.38;100.00;102302.06;5018380;28;20033;-73
2023/10/20 02:55:32;;;;;;;18.77;14.27;;;;;;;9.79;100.00;102209.03;5020393;28;20132;-73
2023/10/20 02:57:59;;;;;;;17.13;14.25;;;;;;;9.70;100.00;102171.69;5013771;28;20109;-72
2023/10/20 03:00:25;;;;;;;19.58;13.15;;;;;;;9.76;100.00;102113.34;5014374;28;20061;-73
2023/10/20 03:02:52;;;;;;;14.63;10.90;;;;;;;9.32;100.00;102005.41;5018093;28;20615;-71
2023/10/20 03:05:20;;;;;;;20.30;11.75;;;;;;;9.56;100.00;102048.81;5007723;28;20471;-72
2023/10/20 03:07:49;;;;;;;19.85;11.93;;;;;;;9.76;100.00;102052.38;5018268;28;20041;-71
2023/10/20 03:10:15;;;;;;;16.52;11.60;;;;;;;9.09;100.00;101944.25;5005549;28;20556;-71
2023/10/20 03:12:40;;;;;;;15.40;11.75;;;;;;;9.79;100.00;102021.91;5021969;28;20117;-70
2023/10/20 03:15:08;;;;;;;19.88;12.05;;;;;;;9.76;100.00;102004.13;5011757;28;20412;-72
2023/10/20 03:17:33;;;;;;;22.40;12.80;;;;;;;9.85;100.00;101998.25;5014224;28;20033;-71
2023/10/20 03:19:58;;;;;;;20.85;14.55;;;;;;;10.06;100.00;101973.81;5013981;28;20050;-72
2023/10/20 03:22:24;;;;;;;25.10;16.10;;;;;;;9.38;100.00;101855.69;5018459;28;20540;-71
2023/10/20 03:24:49;;;;;;;23.63;15.77;;;;;;;10.01;100.00;101924.69;5016276;28;20041;-72
2023/10/20 03:27:14;;;;;;;22.13;16.08;;;;;;;9.31;100.00;101783.72;5018948;28;20045;-71
2023/10/20 03:29:40;;;;;;;21.02;16.10;;;;;;;9.73;100.00;101848.28;5019706;28;20028;-70
2023/10/20 03:32:05;;;;;;;20.40;16.77;;;;;;;10.14;100.00;101852.78;5015076;28;20552;-71
2023/10/20 03:34:32;;;;;;;19.25;16.55;;;;;;;10.19;100.00;101799.41;5015094;28;20064;-71
2023/10/20 03:36:57;;;;;;;20.55;15.18;;;;;;;11.21;100.00;101903.06;5022183;28;20030;-70
2023/10/20 03:39:23;;;;;;;19.70;15.73;;;;;;;10.06;100.00;101844.22;5009353;28;20084;-71
2023/10/20 03:41:49;;;;;;;21.15;15.95;;;;;;;10.31;100.00;101863.00;5021474;28;20036;-70
2023/10/20 03:44:15;;;;;;;18.48;15.57;;;;;;;10.20;100.00;101852.78;5010030;28;20041;-71
2023/10/20 03:46:48;;;;;;;20.83;15.75;;;;;;;10.37;100.00;101884.22;5014486;28;20412;-73
2023/10/20 03:49:15;;;;;;;22.88;15.90;;;;;;;10.10;100.00;101876.47;5018408;28;20033;-72
2023/10/20 03:51:48;;;;;;;20.80;15.93;;;;;;;10.13;100.00;101895.97;5020087;28;20029;-73
2023/10/20 03:54:15;;;;;;;19.08;15.10;;;;;;;10.27;100.00;101948.59;5016055;28;20080;-73
2023/10/20 03:56:41;;;;;;;22.90;16.75;;;;;;;10.16;100.00;101988.31;5013672;28;20044;-72
2023/10/20 03:59:07;;;;;;;22.63;16.08;;;;;;;9.72;100.00;101933.81;5014478;28;20117;-76
2023/10/20 04:01:33;;;;;;;21.80;16.95;;;;;;;10.22;100.00;102034.13;5015273;28;20431;-72
2023/10/20 04:03:59;;;;;;;25.38;16.88;;;;;;;9.95;100.00;102044.06;5019452;28;20079;-73
2023/10/20 04:06:24;;;;;;;21.40;17.48;;;;;;;9.53;100.00;102020.81;5009177;28;20037;-75
2023/10/20 04:08:50;;;;;;;24.17;18.90;;;;;;;9.78;100.00;102042.22;5021567;28;20030;-75
2023/10/20 04:11:15;;;;;;;21.42;17.67;;;;;;;9.83;100.00;102121.84;5019872;28;20021;-75
2023/10/20 04:13:40;;;;;;;25.27;18.58;;;;;;;9.75;100.00;102085.38;5013479;28;20049;-74
2023/10/20 04:16:13;;;;;;;26.48;17.77;;;;;;;10.19;100.00;102176.47;5017411;28;20485;-74
2023/10/20 04:18:42;;;;;;;23.33;18.33;;;;;;;10.22;100.00;102196.81;5006248;28;20142;-71
2023/10/20 04:21:08;;;;;;;21.73;17.75;;;;;;;10.32;100.00;102195.19;5017007;28;20040;-71
2023/10/20 04:23:34;;;;;;;24.05;17.95;;;;;;;9.74;100.00;102147.19;5012533;28;20030;-71
2023/10/20 04:26:00;;;;;;;38.25;25.17;;;;;;;9.72;100.00;102167.50;5011403;28;20088;-72
2023/10/20 04:28:32;;;;;;;33.47;22.27;;;;;;;10.05;100.00;102210.16;5023119;28;20026;-70
2023/10/20 05:08:04;;;;;;;29.33;20.33;;;;;;;10.02;100.00;102329.59;5014927;28;20084;-71
2023/10/20 05:10:30;;;;;;;35.75;24.98;;;;;;;10.21;100.00;102334.94;5020087;28;20033;-70
2023/10/20 05:12:55;;;;;;;29.67;21.65;;;;;;;10.35;100.00;102337.63;5009886;28;20048;-71
2023/10/20 05:15:21;;;;;;;33.95;26.05;;;;;;;10.42;100.00;102316.50;5019325;28;20462;-70
2023/10/20 05:17:47;;;;;;;32.53;24.05;;;;;;;11.31;100.00;102296.91;5018879;28;20108;-71
2023/10/20 05:20:19;;;;;;;33.78;24.02;;;;;;;12.55;100.00;102213.22;5028456;28;20033;-72
2023/10/20 05:22:45;;;;;;;25.02;17.88;;;;;;;12.19;100.00;102048.28;5017890;28;20021;-71
2023/10/20 05:25:11;;;;;;;23.52;17.20;;;;;;;13.17;100.00;102044.59;5021471;28;20033;-71
2023/10/20 05:27:37;;;;;;;24.88;20.10;;;;;;;13.62;100.00;101976.16;5009874;28;20038;-71
2023/10/20 05:30:03;;;;;;;26.73;20.85;;;;;;;14.02;100.00;101853.88;5017219;28;20084;-71
2023/10/20 05:32:31;;;;;;;26.63;19.65;;;;;;;14.31;100.00;101748.63;5017904;28;20048;-71
2023/10/20 05:35:00;;;;;;;23.00;18.58;;;;;;;14.24;100.00;101658.28;5020912;28;20476;-70
2023/10/20 05:37:26;;;;;;;22.17;19.08;;;;;;;14.15;100.00;101558.66;5019962;28;20112;-71
2023/10/20 05:39:52;;;;;;;24.17;18.05;;;;;;;15.53;100.00;101565.31;5022243;28;20112;-71
2023/10/20 05:42:17;;;;;;;22.65;18.27;;;;;;;15.21;100.00;101413.16;5020197;28;20034;-71
2023/10/20 05:47:27;;;;;;;24.17;19.50;;;;;;;15.06;100.00;101249.53;5015865;28;20071;-71
2023/10/20 05:49:53;;;;;;;23.63;19.73;;;;;;;15.93;100.00;101261.66;5009301;28;20446;-71
2023/10/20 05:52:19;;;;;;;24.60;19.23;;;;;;;15.53;100.00;101129.50;5017860;28;20065;-71
2023/10/20 05:54:45;;;;;;;23.17;19.63;;;;;;;16.32;100.00;101150.94;5015786;28;20033;-72
2023/10/20 05:57:11;;;;;;;24.42;20.33;;;;;;;15.89;100.00;101030.09;5017383;28;20029;-71
2023/10/20 05:59:37;;;;;;;33.53;23.83;;;;;;;15.00;100.00;100999.56;5025728;28;20480;-72
2023/10/20 06:02:03;;;;;;;34.05;23.00;;;;;;;14.25;100.00;101030.66;5019143;28;20058;-73
2023/10/20 06:04:29;;;;;;;32.70;23.90;;;;;;;13.65;100.00;101039.81;5022297;28;20452;-71
2023/10/20 06:06:54;;;;;;;27.00;20.98;;;;;;;13.67;100.00;101135.19;5016072;28;20039;-73
2023/10/20 06:09:20;;;;;;;26.27;19.75;;;;;;;13.45;100.00;101155.25;5020326;28;20038;-73
2023/10/20 06:11:45;;;;;;;26.40;18.65;;;;;;;13.49;100.00;101210.50;5015677;28;20566;-73
2023/10/20 06:14:11;;;;;;;22.58;18.55;;;;;;;13.49;100.00;101213.06;5010718;28;20515;-73
2023/10/20 06:16:36;;;;;;;28.00;18.48;;;;;;;14.01;100.00;101312.56;5015621;28;20031;-73
2023/10/20 06:19:02;;;;;;;28.33;19.20;;;;;;;13.65;100.00;101274.94;5017919;28;20038;-73
2023/10/20 06:21:28;;;;;;;27.40;18.30;;;;;;;14.35;100.00;101348.53;5017939;28;20030;-72
2023/10/20 06:23:54;;;;;;;30.63;20.83;;;;;;;14.43;100.00;101324.47;5009739;28;20029;-73
2023/10/20 06:26:19;;;;;;;33.33;20.08;;;;;;;14.32;100.00;101338.38;5015210;28;20036;-72
2023/10/20 06:28:44;;;;;;;37.65;21.02;;;;;;;14.71;100.00;101305.06;5014847;28;20029;-73
2023/10/20 06:33:51;;;;;;;24.95;19.50;;;;;;;14.94;100.00;101312.16;5019964;28;20107;-72
2023/10/20 06:36:22;;;;;;;25.30;19.15;;;;;;;14.55;100.00;101313.97;5020715;28;20041;-72
2023/10/20 06:38:49;;;;;;;25.60;19.17;;;;;;;14.75;100.00;101316.91;5021458;28;20071;-72
2023/10/20 06:41:14;;;;;;;26.23;18.75;;;;;;;15.39;100.00;101407.56;5009297;28;20045;-72
2023/10/20 06:43:40;;;;;;;23.80;18.55;;;;;;;15.08;100.00;101365.63;5008659;28;20488;-72
2023/10/20 06:46:05;;;;;;;25.10;18.75;;;;;;;14.96;100.00;101324.94;5022059;28;20052;-72
2023/10/20 06:48:31;;;;;;;22.63;18.67;;;;;;;15.92;100.00;101401.09;5015846;28;20159;-71
2023/10/20 06:50:57;;;;;;;27.50;18.92;;;;;;;15.63;100.00;101372.81;5010833;28;20042;-71
2023/10/20 06:53:22;;;;;;;27.92;19.25;;;;;;;15.79;100.00;101326.19;5009093;28;20021;-72
2023/10/20 06:55:48;;;;;;;29.63;19.85;;;;;;;15.34;100.00;101278.69;5014806;28;20034;-72
2023/10/20 06:58:17;;;;;;;30.45;19.00;;;;;;;15.93;100.00;101292.44;5022828;28;20104;-69
2023/10/20 07:00:44;;;;;;;31.65;20.75;;;;;;;16.19;100.00;101300.22;5008433;28;20091;-71
2023/10/20 07:03:10;;;;;;;30.40;19.77;;;;;;;16.66;100.00;101316.81;5006316;28;20064;-71
2023/10/20 07:05:37;;;;;;;39.38;19.73;;;;;;;16.56;100.00;101261.50;5020301;28;20033;-71
2023/10/20 07:08:05;;;;;;;25.30;18.95;;;;;;;15.63;100.00;101176.22;5005712;28;20415;-70
2023/10/20 07:10:39;;;;;;;29.50;18.33;;;;;;;16.09;100.00;101261.19;5020000;28;20029;-68
2023/10/20 07:13:10;;;;;;;32.20;18.73;;;;;;;16.85;100.00;101281.94;5019624;28;20054;-71
2023/10/20 07:15:36;;;;;;;26.08;18.75;;;;;;;16.61;100.00;101257.88;5016880;28;20029;-70
2023/10/20 07:18:03;;;;;;;26.05;17.98;;;;;;;16.02;100.00;101192.16;5019250;28;20037;-71
2023/10/20 07:20:30;;;;;;;24.27;18.40;;;;;;;16.94;100.00;101263.63;5017066;28;20030;-70
2023/10/20 07:22:58;;;;;;;21.90;18.05;;;;;;;16.99;100.00;101239.47;5008611;28;20065;-70
2023/10/20 07:25:24;;;;;;;21.30;17.50;;;;;;;15.83;100.00;101139.72;5012456;28;20504;-71
2023/10/20 07:27:50;;;;;;;22.40;17.48;;;;;;;16.56;100.00;101187.84;5007908;28;20034;-71
2023/10/20 07:30:16;;;;;;;22.55;17.88;;;;;;;16.90;100.00;101256.91;5019966;28;20026;-70
2023/10/20 07:32:43;;;;;;;19.75;17.63;;;;;;;16.24;100.00;101150.34;5018514;28;20073;-70
2023/10/20 07:35:11;;;;;;;22.48;18.02;;;;;;;17.39;100.00;101277.47;5019377;28;20078;-71
2023/10/20 07:37:37;;;;;;;26.90;20.63;;;;;;;17.21;100.00;101219.81;5007324;28;20030;-70
2023/10/20 07:40:04;;;;;;;26.83;19.25;;;;;;;17.61;100.00;101213.31;5019700;28;20059;-71
2023/10/20 07:42:30;;;;;;;23.52;19.33;;;;;;;17.63;100.00;101207.19;5003051;28;20034;-72
2023/10/20 07:44:56;;;;;;;22.63;19.23;;;;;;;17.45;100.00;101130.69;5017803;28;20175;-71
2023/10/20 07:47:22;;;;;;;27.58;20.60;;;;;;;17.02;100.00;101100.59;5023622;28;20105;-71
2023/10/20 07:49:48;;;;;;;20.77;18.02;;;;;;;17.92;100.00;101183.78;5020299;28;20060;-70
2023/10/20 07:52:13;;;;;;;24.10;18.05;;;;;;;17.58;100.00;101101.06;5014945;28;20160;-71
2023/10/20 07:54:39;;;;;;;23.30;18.95;;;;;;;17.59;100.00;101083.91;5018150;28;20156;-73
2023/10/20 07:57:04;;;;;;;22.83;18.02;;;;;;;17.61;100.00;101120.72;5025266;28;20104;-72
2023/10/20 07:59:30;;;;;;;22.00;17.42;;;;;;;18.19;100.00;101138.94;5015552;28;20461;-72
2023/10/20 08:01:56;;;;;;;19.10;17.00;;;;;;;17.77;100.00;101104.59;5018821;28;20029;-72
2023/10/20 08:04:21;;;;;;;21.55;17.27;;;;;;;17.55;100.00;101043.78;5011115;28;20037;-72
2023/10/20 08:06:47;;;;;;;18.30;16.33;;;;;;;17.95;100.00;101080.72;5020522;28;20112;-72
2023/10/20 08:09:13;;;;;;;19.77;16.75;;;;;;;17.77;100.00;101086.59;5011354;28;20033;-73
2023/10/20 08:11:42;;;;;;;19.63;15.13;;;;;;;18.39;100.00;101132.94;5021781;28;20029;-73
2023/10/20 08:14:07;;;;;;;16.45;14.20;;;;;;;18.31;100.00;101109.25;5007875;28;20428;-73
2023/10/20 08:16:33;;;;;;;17.35;13.70;;;;;;;18.29;100.00;101111.06;5010700;28;20038;-72
2023/10/20 08:18:58;;;;;;;16.13;13.23;;;;;;;18.39;100.00;101101.22;5011490;28;20095;-71
2023/10/20 08:21:29;;;;;;;14.77;13.20;;;;;;;18.23;100.00;101077.84;5011192;28;20036;-71
2023/10/20 08:23:57;;;;;;;13.10;11.73;;;;;;;18.25;100.00;101065.75;5008890;28;20030;-72
2023/10/20 08:26:23;;;;;;;16.00;11.68;;;;;;;18.52;100.00;101072.31;5010280;28;20030;-73
2023/10/20 08:28:49;;;;;;;18.58;11.88;;;;;;;17.93;100.00;101041.34;5011692;28;20029;-72
2023/10/20 08:31:17;;;;;;;14.88;11.70;;;;;;;19.01;100.00;101069.25;5010042;28;20030;-73
2023/10/20 08:33:43;;;;;;;11.77;10.57;;;;;;;18.80;100.00;101036.72;5007755;28;20105;-73
2023/10/20 08:36:14;;;;;;;12.95;10.85;;;;;;;17.77;100.00;100991.41;5010745;28;20112;-71
2023/10/20 08:38:45;;;;;;;16.80;11.15;;;;;;;18.63;100.00;101057.25;5010126;28;20397;-71
2023/10/20 08:41:13;;;;;;;11.82;10.23;;;;;;;18.85;100.00;100965.19;5009672;28;20624;-73
2023/10/20 08:43:43;;;;;;;13.93;9.63;;;;;;;18.95;100.00;100986.22;5010393;28;20026;-72
2023/10/20 08:46:10;;;;;;;10.63;8.75;;;;;;;19.35;100.00;100942.19;5010845;28;20041;-72
2023/10/20 08:48:46;;;;;;;9.85;8.65;;;;;;;18.06;100.00;100858.94;5009883;28;20100;-74
2023/10/20 08:51:14;;;;;;;10.63;9.38;;;;;;;18.47;100.00;100927.47;5006398;28;20046;-72
2023/10/20 08:53:41;;;;;;;12.52;9.05;;;;;;;18.34;100.00;100872.25;5011028;28;20030;-73
2023/10/20 08:56:08;;;;;;;11.18;8.63;;;;;;;19.60;100.00;100955.56;5010418;28;20030;-72
2023/10/20 08:58:35;;;;;;;8.93;8.02;;;;;;;19.46;100.00;100959.72;5010605;28;20034;-71
2023/10/20 09:01:01;;;;;;;8.77;7.75;;;;;;;19.58;100.00;100897.22;5009046;28;20034;-72
2023/10/20 09:03:27;;;;;;;12.82;8.10;;;;;;;19.75;100.00;100910.94;5010271;28;20069;-71
2023/10/20 09:06:08;;;;;;;13.75;8.43;;;;;;;19.52;100.00;100882.88;5009383;28;20561;-72
2023/10/20 09:08:33;;;;;;;10.75;8.18;;;;;;;20.17;100.00;100887.22;5009153;28;20036;-71
2023/10/20 09:10:59;;;;;;;9.82;7.80;;;;;;;20.70;100.00;100863.66;5010476;28;20030;-73
2023/10/20 09:13:34;;;;;;;11.10;7.60;;;;;;;20.51;100.00;100793.25;5015299;28;20115;-72
2023/10/20 09:16:07;;;;;;;7.97;7.20;;;;;;;20.41;100.00;100803.28;5020531;28;20033;-72
2023/10/20 09:18:50;;;;;;;9.85;7.72;;;;;;;20.15;100.00;100744.44;5020694;28;20029;-71
2023/10/20 09:21:27;;;;;;;10.52;7.30;;;;;;;20.33;100.00;100686.63;5019568;28;20039;-73
2023/10/20 09:23:57;;;;;;;10.85;7.63;;;;;;;20.45;100.00;100747.09;5023368;28;20049;-73
2023/10/20 09:26:24;;;;;;;9.95;6.90;;;;;;;20.63;100.00;100721.03;5019758;28;20037;-71
2023/10/20 09:28:50;;;;;;;10.15;7.22;;;;;;;20.42;100.00;100695.59;5010016;28;20029;-72
2023/10/20 09:31:17;;;;;;;8.13;6.63;;;;;;;20.06;100.00;100615.84;5017268;28;20137;-71
2023/10/20 09:33:43;;;;;;;7.38;6.38;;;;;;;20.13;100.00;100631.78;5010868;28;20034;-71
2023/10/20 09:36:11;;;;;;;9.88;6.40;;;;;;;19.95;100.00;100594.13;5023079;28;20384;-71
2023/10/20 09:38:37;;;;;;;9.80;7.35;;;;;;;20.62;100.00;100579.81;5019787;28;20030;-72
2023/10/20 09:41:14;;;;;;;7.95;6.80;;;;;;;20.49;100.00;100612.47;5010952;28;20520;-71
2023/10/20 09:43:47;;;;;;;18.23;7.72;;;;;;;21.09;100.00;100605.44;5015864;28;20485;-71
2023/10/20 09:46:26;;;;;;;8.07;6.80;;;;;;;21.21;100.00;100511.56;5011532;28;20045;-71
2023/10/20 09:48:55;;;;;;;10.23;6.75;;;;;;;21.28;100.00;100474.00;5005944;28;20552;-71
2023/10/20 09:51:21;;;;;;;8.13;6.78;;;;;;;21.88;100.00;100494.28;5023308;28;20037;-76
2023/10/20 09:53:48;;;;;;;12.15;6.88;;;;;;;21.72;100.00;100470.28;5015448;28;20044;-70
2023/10/20 09:56:16;;;;;;;11.15;6.85;;;;;;;20.57;100.00;100398.38;5006927;28;20108;-70
2023/10/20 09:58:41;;;;;;;10.02;7.00;;;;;;;21.56;100.00;100448.00;5015625;28;20042;-72
2023/10/20 10:01:07;;;;;;;9.70;6.40;;;;;;;21.05;100.00;100372.97;5008281;28;20492;-71
2023/10/20 10:03:51;;;;;;;8.45;6.70;;;;;;;21.65;100.00;100339.63;5022426;28;20055;-71
2023/10/20 10:06:17;;;;;;;10.38;6.78;;;;;;;21.56;100.00;100351.41;5022258;28;20037;-70
2023/10/20 10:08:43;;;;;;;9.68;7.20;;;;;;;21.96;100.00;100341.78;5014419;28;20022;-70
2023/10/20 10:11:19;;;;;;;13.13;7.70;;;;;;;21.32;100.00;100311.66;5016313;28;20050;-71
2023/10/20 10:13:44;;;;;;;11.90;6.75;;;;;;;21.48;100.00;100297.59;5006849;28;20077;-71
2023/10/20 10:16:13;;;;;;;8.63;6.07;;;;;;;21.41;100.00;100339.50;5020891;28;20522;-71
2023/10/20 10:18:45;;;;;;;9.57;6.65;;;;;;;21.25;100.00;100325.94;5020741;28;20042;-71
2023/10/20 10:21:23;;;;;;;12.75;6.72;;;;;;;22.03;100.00;100317.94;5015064;28;20026;-71
2023/10/20 10:24:14;;;;;;;9.05;5.93;;;;;;;21.54;100.00;100291.16;5015991;28;20034;-72
2023/10/20 10:26:52;;;;;;;8.90;5.93;;;;;;;22.75;100.00;100298.13;5021717;28;20037;-74
2023/10/20 10:29:20;;;;;;;9.35;6.40;;;;;;;21.63;100.00;100236.16;5017445;28;20049;-72
2023/10/20 10:31:47;;;;;;;10.65;6.90;;;;;;;22.12;100.00;100260.34;5016004;28;20056;-71
2023/10/20 10:34:14;;;;;;;10.40;6.22;;;;;;;22.25;100.00;100262.84;5008891;28;20045;-71
2023/10/20 10:36:46;;;;;;;9.13;6.40;;;;;;;22.12;100.00;100257.75;5018748;28;20032;-73
2023/10/20 10:39:27;;;;;;;11.77;9.50;;;;;;;22.44;100.00;100181.06;5005776;28;20416;-71
2023/10/20 10:41:53;;;;;;;10.23;6.97;;;;;;;22.73;100.00;100186.75;5021021;28;20061;-71
2023/10/20 10:44:21;;;;;;;8.65;6.47;;;;;;;22.79;100.00;100212.22;5010659;28;20067;-71
2023/10/20 10:46:47;;;;;;;10.88;7.30;;;;;;;22.99;100.00;100169.22;5007983;28;20286;-71
2023/10/20 10:49:13;;;;;;;9.93;6.50;;;;;;;22.57;100.00;100142.16;5007435;28;20026;-70
2023/10/20 10:51:46;;;;;;;13.95;7.70;;;;;;;22.79;100.00;100195.81;5015105;28;20026;-70
2023/10/20 10:54:13;;;;;;;10.50;7.20;;;;;;;22.92;100.00;100150.69;5020428;28;20029;-70
2023/10/20 10:56:41;;;;;;;11.85;7.80;;;;;;;22.98;100.00;100185.72;5018383;28;20064;-70
2023/10/20 10:59:08;;;;;;;11.65;6.40;;;;;;;22.97;100.00;100161.56;5016815;28;20598;-71
2023/10/20 11:01:34;;;;;;;10.10;5.72;;;;;;;23.38;100.00;100160.16;5010209;28;20025;-70
2023/10/20 11:04:00;;;;;;;9.93;5.95;;;;;;;22.98;100.00;100144.22;5019786;28;20503;-70
2023/10/20 11:06:25;;;;;;;8.00;6.13;;;;;;;23.24;100.00;100119.69;5019252;28;20147;-70
2023/10/20 11:08:51;;;;;;;6.93;5.60;;;;;;;23.57;100.00;100148.22;5010216;28;20045;-70
2023/10/20 11:11:17;;;;;;;7.45;5.55;;;;;;;23.69;100.00;100167.22;5019636;28;20042;-70
2023/10/20 11:13:43;;;;;;;10.52;4.97;;;;;;;24.27;100.00;100168.56;5016890;28;20483;-71
2023/10/20 11:16:09;;;;;;;8.95;5.72;;;;;;;22.66;100.00;100112.13;5016443;28;20033;-71
2023/10/20 11:18:35;;;;;;;9.07;5.45;;;;;;;23.13;100.00;100112.75;5006754;28;20030;-70
2023/10/20 11:21:00;;;;;;;6.88;5.32;;;;;;;23.83;100.00;100096.78;5018678;28;20511;-71
2023/10/20 11:23:30;;;;;;;7.88;5.10;;;;;;;24.79;100.00;100132.13;5008677;28;20053;-70
2023/10/20 11:25:57;;;;;;;6.28;4.90;;;;;;;24.10;100.00;100130.97;5003249;28;20488;-71
2023/10/20 11:28:23;;;;;;;8.43;5.10;;;;;;;23.94;100.00;100081.16;5015389;28;20151;-70
2023/10/20 11:30:49;;;;;;;11.85;5.13;;;;;;;23.75;100.00;100063.66;5008377;28;20499;-70
2023/10/20 11:33:17;;;;;;;9.13;4.63;;;;;;;24.71;100.00;100124.94;5019842;28;20032;-70
2023/10/20 11:35:43;;;;;;;7.80;5.45;;;;;;;24.02;100.00;100079.63;5019087;28;20033;-71
2023/10/20 11:38:09;;;;;;;7.47;4.90;;;;;;;24.60;100.00;100072.19;5018540;28;20407;-70
2023/10/20 11:40:34;;;;;;;8.85;4.82;;;;;;;23.67;100.00;100050.47;5017484;28;20026;-71
2023/10/20 11:43:00;;;;;;;7.13;4.90;;;;;;;23.99;100.00;100051.25;5008011;28;20168;-70
2023/10/20 11:45:25;;;;;;;7.28;4.95;;;;;;;24.57;100.00;100059.44;5020908;28;20094;-71
2023/10/20 11:47:51;;;;;;;7.35;4.90;;;;;;;24.51;100.00;100058.19;5007330;28;20488;-70